map of PAD home
PAD - Airport
Location
City:  Paderborn/Lippstadt, North Rhine-Westphalia, Germany
ICAO:EDLP
IATA:PAD

Details
Type:Airport (Flugplatz, Airfield)
Use:Public/Civil
Latitude:5136'51"N (51.614089)
Longitude:836'59"E (8.616317)
Datum:WGS 1984
Elevation:699 ft (213 m)
Variation:2.69E (WMM2015v2 magnetic declination)
0.17 annual change
Runways:1
Longest:7152 × 148 ft (2180 × 45 m), paved

Time
Time Zone:UTC+1 (DST+2)
Local Time:

Weather
METAR:EDLP 041350Z 20009KT 160V240 CAVOK 04/M02 Q1025
TAF:EDLP 041100Z 0412/0512 20012KT CAVOK
BECMG 0505/0507 22007KT PROB30
TEMPO 0506/0510 BKN012

Related Locations
Nearby:
Farthest:CHT: 11843 mi / 19059 km
Waitangi [Tuuta], CIT, NZ

Find:

   beyond  
but within

Other Information
Maps:
NOTAMs:
Links:
Sources:

  
  • flag of Germany
  • flag of North Rhine-Westphalia
  • flag of Paderborn/Lippstadt
  

Sectional Chart

Flight Planning
at skyvector.com

Satellite Image

Google Maps Satellite view

 

Copyright © 2004-2019 Karl L. Swartz. All rights reserved.
The Great Circle Mapper name and logo are trademarks of the Great Circle Mapper.
All other trademarks mentioned herein belong to their respective owners.
Please see credits for attibutions and further copyright information.

  Follow gcmap on Facebook Follow gcmap on Twitter GCmap on LinkedIn

hCard Microformat

Geo Microformat